createdAt,value
2018-08-21T00:00:59.375Z,100814.50
2018-08-21T00:02:04.648Z,100811.73
2018-08-21T00:03:10.835Z,100808.63
2018-08-21T00:04:17.168Z,100809.66
2018-08-21T00:05:22.920Z,100814.58
2018-08-21T00:06:28.227Z,100814.69
2018-08-21T00:07:34.563Z,100813.02
2018-08-21T00:08:40.288Z,100819.44
2018-08-21T00:09:51.120Z,100809.50
2018-08-21T00:10:56.437Z,100815.86
2018-08-21T00:12:02.567Z,100815.23
2018-08-21T00:13:08.309Z,100815.17
2018-08-21T00:14:14.028Z,100808.98
2018-08-21T00:15:19.128Z,100813.61
2018-08-21T00:16:24.887Z,100813.84
2018-08-21T00:17:30.555Z,100819.41
2018-08-21T00:18:36.529Z,100816.40
2018-08-21T00:19:42.542Z,100823.48
2018-08-21T00:20:48.321Z,100823.02
2018-08-21T00:21:53.669Z,100826.94
2018-08-21T00:23:04.115Z,100826.97
2018-08-21T00:24:09.488Z,100821.34
2018-08-21T00:25:15.539Z,100827.31
2018-08-21T00:26:21.519Z,100823.13
2018-08-21T00:27:27.366Z,100823.44
2018-08-21T00:28:32.984Z,100818.26
2018-08-21T00:29:38.343Z,100820.91
2018-08-21T00:30:43.643Z,100819.20
2018-08-21T00:31:49.701Z,100820.34
2018-08-21T00:32:55.571Z,100821.70
2018-08-21T00:34:01.175Z,100818.44
2018-08-21T00:35:06.923Z,100821.35
2018-08-21T00:36:13.974Z,100818.62
2018-08-21T00:37:20.511Z,100823.22
2018-08-21T00:38:25.958Z,100822.41
2018-08-21T00:39:32.135Z,100823.48
2018-08-21T00:40:37.968Z,100822.17
2018-08-21T00:41:48.808Z,100824.66
2018-08-21T00:42:54.587Z,100827.12
2018-08-21T00:44:00.310Z,100827.25
2018-08-21T00:45:06.188Z,100828.89
2018-08-21T00:46:13.608Z,100827.19
2018-08-21T00:47:19.629Z,100828.15
2018-08-21T00:48:25.616Z,100826.06
2018-08-21T00:49:30.929Z,100823.02
2018-08-21T00:50:37.085Z,100824.52
2018-08-21T00:51:42.855Z,100825.47
2018-08-21T00:52:48.475Z,100826.87
2018-08-21T00:53:54.532Z,100826.34
2018-08-21T00:55:00.539Z,100826.63
2018-08-21T00:56:06.568Z,100829.83
2018-08-21T00:57:11.943Z,100832.02
2018-08-21T00:58:17.578Z,100825.53
2018-08-21T00:59:22.950Z,100827.90
2018-08-21T01:00:28.796Z,100825.67
2018-08-21T01:01:32.999Z,100823.84
2018-08-21T01:02:38.501Z,100819.23
2018-08-21T01:03:44.820Z,100823.55
2018-08-21T01:04:50.685Z,100824.34
2018-08-21T01:05:56.801Z,100824.14
2018-08-21T01:07:02.921Z,100829.11
2018-08-21T01:08:08.568Z,100832.77
2018-08-21T01:09:14.997Z,100829.92
2018-08-21T01:10:20.799Z,100830.22
2018-08-21T01:11:27.083Z,100830.53
2018-08-21T01:12:32.431Z,100834.25
2018-08-21T01:13:37.706Z,100832.88
2018-08-21T01:14:43.813Z,100830.91
2018-08-21T01:15:55.048Z,100829.74
2018-08-21T01:17:01.339Z,100831.20
2018-08-21T01:18:07.004Z,100831.06
2018-08-21T01:19:17.870Z,100826.14
2018-08-21T01:20:23.976Z,100825.19
2018-08-21T01:21:29.631Z,100832.45
2018-08-21T01:22:35.663Z,100826.53
2018-08-21T01:23:41.340Z,100826.22
2018-08-21T01:24:47.340Z,100828.62
2018-08-21T01:25:53.534Z,100828.63
2018-08-21T01:26:59.679Z,100827.43
2018-08-21T01:28:20.588Z,100828.70
2018-08-21T01:29:27.239Z,100831.78
2018-08-21T01:30:32.675Z,100824.93
2018-08-21T01:31:38.271Z,100826.72
2018-08-21T01:32:43.616Z,100828.40
2018-08-21T01:33:53.585Z,100826.31
2018-08-21T01:34:59.616Z,100819.26
2018-08-21T01:36:05.760Z,100828.56
2018-08-21T01:37:15.940Z,100824.77
2018-08-21T01:38:22.048Z,100832.57
2018-08-21T01:39:28.131Z,100824.70
2018-08-21T01:40:35.006Z,100826.87
2018-08-21T01:41:40.733Z,100832.16
2018-08-21T01:42:46.829Z,100832.05
2018-08-21T01:43:52.506Z,100828.70
2018-08-21T01:44:58.479Z,100829.23
2018-08-21T01:46:04.340Z,100834.22
2018-08-21T01:47:09.795Z,100829.00
2018-08-21T01:48:15.747Z,100823.97
2018-08-21T01:49:21.078Z,100830.55
2018-08-21T01:50:27.076Z,100826.07
2018-08-21T01:51:33.087Z,100830.49
2018-08-21T01:52:39.126Z,100830.73
2018-08-21T01:53:45.042Z,100831.56
2018-08-21T01:54:50.975Z,100827.22
2018-08-21T01:55:56.704Z,100833.17
2018-08-21T01:57:03.304Z,100823.99
2018-08-21T01:58:09.047Z,100826.72
2018-08-21T01:59:20.115Z,100829.52
2018-08-21T02:00:25.771Z,100827.46
2018-08-21T02:01:31.824Z,100823.70
2018-08-21T02:02:37.524Z,100819.57
2018-08-21T02:03:43.557Z,100824.19
2018-08-21T02:04:49.248Z,100824.50
2018-08-21T02:05:54.871Z,100821.81
2018-08-21T02:07:00.604Z,100820.95
2018-08-21T02:08:06.299Z,100826.47
2018-08-21T02:09:11.638Z,100823.65
2018-08-21T02:10:18.221Z,100824.16
2018-08-21T02:11:24.231Z,100823.22
2018-08-21T02:12:29.857Z,100824.23
2018-08-21T02:13:35.919Z,100830.84
2018-08-21T02:14:47.167Z,100821.70
2018-08-21T02:15:52.825Z,100822.66
2018-08-21T02:16:59.581Z,100820.95
2018-08-21T02:18:04.901Z,100820.67
2018-08-21T02:19:10.644Z,100824.05
2018-08-21T02:20:16.685Z,100824.77
2018-08-21T02:21:22.675Z,100825.06
2018-08-21T02:22:28.795Z,100828.20
2018-08-21T02:23:40.496Z,100828.39
2018-08-21T02:24:46.584Z,100827.67
2018-08-21T02:25:52.655Z,100827.08
2018-08-21T02:26:58.756Z,100832.83
2018-08-21T02:28:04.740Z,100829.59
2018-08-21T02:29:10.408Z,100831.12
2018-08-21T02:30:16.493Z,100827.93
2018-08-21T02:31:22.111Z,100826.82
2018-08-21T02:32:28.069Z,100823.91
2018-08-21T02:33:34.032Z,100825.60
2018-08-21T02:34:40.106Z,100829.27
2018-08-21T02:35:46.083Z,100826.50
2018-08-21T02:36:52.198Z,100825.03
2018-08-21T02:37:58.276Z,100821.32
2018-08-21T02:39:03.467Z,100821.98
2018-08-21T02:40:13.655Z,100824.60
2018-08-21T02:41:19.372Z,100826.89
2018-08-21T02:42:25.004Z,100831.36
2018-08-21T02:43:30.254Z,100834.27
2018-08-21T02:44:36.162Z,100832.74
2018-08-21T02:45:42.159Z,100832.89
2018-08-21T02:46:48.295Z,100826.80
2018-08-21T02:47:54.372Z,100832.37
2018-08-21T02:49:00.438Z,100833.36
2018-08-21T02:50:06.152Z,100831.75
2018-08-21T02:51:26.250Z,100833.50
2018-08-21T02:52:32.316Z,100827.50
2018-08-21T02:53:38.435Z,100822.32
2018-08-21T02:54:45.172Z,100822.65
2018-08-21T02:55:51.164Z,100828.50
2018-08-21T02:56:57.148Z,100828.55
2018-08-21T02:58:02.484Z,100827.02
2018-08-21T02:59:08.577Z,100830.67
2018-08-21T03:00:14.246Z,100835.67
2018-08-21T03:01:19.543Z,100832.16
2018-08-21T03:02:25.681Z,100826.80
2018-08-21T03:03:32.284Z,100832.74
2018-08-21T03:04:38.267Z,100827.83
2018-08-21T03:05:45.224Z,100831.92
2018-08-21T03:06:50.499Z,100838.52
2018-08-21T03:07:56.615Z,100839.38
2018-08-21T03:09:02.600Z,100842.72
2018-08-21T03:10:08.685Z,100845.05
2018-08-21T03:11:14.808Z,100842.69
2018-08-21T03:12:20.828Z,100839.88
2018-08-21T03:13:29.867Z,100844.27
2018-08-21T03:14:36.802Z,100841.83
2018-08-21T03:15:42.972Z,100841.12
2018-08-21T03:16:48.918Z,100842.87
2018-08-21T03:17:54.939Z,100846.30
2018-08-21T03:19:01.112Z,100848.58
2018-08-21T03:20:06.465Z,100845.92
2018-08-21T03:21:12.177Z,100848.80
2018-08-21T03:22:18.240Z,100849.98
2018-08-21T03:23:24.500Z,100853.03
2018-08-21T03:24:30.562Z,100853.52
2018-08-21T03:25:36.649Z,100852.37
2018-08-21T03:26:47.648Z,100859.26
2018-08-21T03:27:53.684Z,100859.36
2018-08-21T03:28:59.710Z,100860.78
2018-08-21T03:30:05.071Z,100862.41
2018-08-21T03:31:10.491Z,100857.35
2018-08-21T03:32:21.591Z,100854.54
2018-08-21T03:33:27.732Z,100858.87
2018-08-21T03:34:33.698Z,100859.09
2018-08-21T03:35:39.816Z,100857.27
2018-08-21T03:36:45.923Z,100855.48
2018-08-21T03:37:51.945Z,100860.39
2018-08-21T03:38:57.377Z,100858.02
2018-08-21T03:40:03.476Z,100862.57
2018-08-21T03:41:10.496Z,100859.03
2018-08-21T03:42:16.334Z,100867.55
2018-08-21T03:43:22.361Z,100866.21
2018-08-21T03:44:37.733Z,100865.48
2018-08-21T03:45:43.791Z,100871.98
2018-08-21T03:46:49.889Z,100864.09
2018-08-21T03:47:55.304Z,100868.09
2018-08-21T03:49:01.326Z,100866.53
2018-08-21T03:50:06.923Z,100870.18
2018-08-21T03:51:13.194Z,100868.58
2018-08-21T03:52:19.329Z,100869.62
2018-08-21T03:53:24.609Z,100872.18
2018-08-21T03:54:30.631Z,100873.08
2018-08-21T03:55:36.970Z,100870.31
2018-08-21T03:56:43.013Z,100870.06
2018-08-21T03:57:49.119Z,100873.18
2018-08-21T03:58:55.265Z,100872.08
2018-08-21T04:00:01.107Z,100877.14
2018-08-21T04:01:07.333Z,100876.74
2018-08-21T04:02:13.448Z,100870.52
2018-08-21T04:03:23.540Z,100876.31
2018-08-21T04:04:29.690Z,100877.64
2018-08-21T04:05:35.797Z,100874.51
2018-08-21T04:06:41.679Z,100876.75
2018-08-21T04:07:47.796Z,100869.95
2018-08-21T04:08:53.452Z,100877.27
2018-08-21T04:09:59.536Z,100874.41
2018-08-21T04:11:04.767Z,100873.83
2018-08-21T04:12:11.073Z,100880.01
2018-08-21T04:13:17.195Z,100882.63
2018-08-21T04:14:23.325Z,100876.60
2018-08-21T04:15:29.171Z,100874.08
2018-08-21T04:16:35.316Z,100873.43
2018-08-21T04:17:41.335Z,100877.77
2018-08-21T04:18:46.958Z,100880.11
2018-08-21T04:19:52.695Z,100881.99
2018-08-21T04:20:58.933Z,100883.80
2018-08-21T04:22:04.558Z,100889.97
2018-08-21T04:23:10.376Z,100886.50
2018-08-21T04:24:15.652Z,100894.05
2018-08-21T04:25:21.597Z,100895.50
2018-08-21T04:26:30.674Z,100896.09
2018-08-21T04:27:36.676Z,100893.98
2018-08-21T04:28:42.726Z,100892.66
2018-08-21T04:29:48.825Z,100890.90
2018-08-21T04:30:54.968Z,100887.47
2018-08-21T04:32:01.794Z,100892.70
2018-08-21T04:33:07.812Z,100891.33
2018-08-21T04:34:14.818Z,100887.16
2018-08-21T04:35:20.493Z,100892.78
2018-08-21T04:36:26.476Z,100887.54
2018-08-21T04:37:32.460Z,100888.80
2018-08-21T04:38:38.500Z,100892.50
2018-08-21T04:39:49.548Z,100900.43
2018-08-21T04:40:56.269Z,100905.04
2018-08-21T04:42:05.990Z,100906.95
2018-08-21T04:43:11.995Z,100909.36
2018-08-21T04:44:18.754Z,100908.03
2018-08-21T04:45:24.841Z,100911.55
2018-08-21T04:46:30.973Z,100912.66
2018-08-21T04:47:36.836Z,100910.99
2018-08-21T04:48:42.905Z,100914.20
2018-08-21T04:49:48.263Z,100916.43
2018-08-21T04:50:54.239Z,100919.31
2018-08-21T04:52:01.991Z,100921.07
2018-08-21T04:53:14.433Z,100920.16
2018-08-21T04:54:22.425Z,100917.77
2018-08-21T04:55:28.533Z,100915.33
2018-08-21T04:56:34.607Z,100922.93
2018-08-21T04:57:39.717Z,100915.17
2018-08-21T04:58:45.814Z,100924.01
2018-08-21T04:59:51.332Z,100919.78
2018-08-21T05:00:57.160Z,100918.70
2018-08-21T05:02:03.335Z,100920.89
2018-08-21T05:03:09.449Z,100920.95
2018-08-21T05:04:19.610Z,100923.23
2018-08-21T05:05:25.731Z,100922.03
2018-08-21T05:06:31.059Z,100918.89
2018-08-21T05:07:36.078Z,100918.98
2018-08-21T05:08:42.236Z,100919.80
2018-08-21T05:09:48.303Z,100923.41
2018-08-21T05:10:54.427Z,100917.02
2018-08-21T05:12:00.539Z,100916.38
2018-08-21T05:13:06.532Z,100922.54
2018-08-21T05:14:12.680Z,100920.23
2018-08-21T05:15:20.799Z,100928.64
2018-08-21T05:16:26.778Z,100929.67
2018-08-21T05:17:32.120Z,100924.73
2018-08-21T05:18:38.218Z,100928.05
2018-08-21T05:19:45.214Z,100926.41
2018-08-21T05:20:51.334Z,100928.34
2018-08-21T05:21:57.335Z,100924.91
2018-08-21T05:23:03.447Z,100926.50
2018-08-21T05:24:09.585Z,100926.92
2018-08-21T05:25:15.576Z,100930.73
2018-08-21T05:26:21.698Z,100934.57
2018-08-21T05:27:27.429Z,100931.52
2018-08-21T05:28:33.589Z,100935.42
2018-08-21T05:29:39.796Z,100940.18
2018-08-21T05:30:45.203Z,100942.23
2018-08-21T05:31:50.838Z,100938.52
2018-08-21T05:32:56.859Z,100937.09
2018-08-21T05:34:07.658Z,100944.00
2018-08-21T05:35:13.574Z,100945.28
2018-08-21T05:36:19.935Z,100946.61
2018-08-21T05:37:25.239Z,100950.34
2018-08-21T05:38:36.348Z,100945.02
2018-08-21T05:39:41.720Z,100951.38
2018-08-21T05:40:47.455Z,100950.64
2018-08-21T05:41:58.219Z,100943.34
2018-08-21T05:43:03.750Z,100946.38
2018-08-21T05:44:09.760Z,100951.73
2018-08-21T05:45:15.354Z,100951.05
2018-08-21T05:46:21.320Z,100951.59
2018-08-21T05:47:27.424Z,100955.94
2018-08-21T05:48:33.335Z,100954.75
2018-08-21T05:49:39.960Z,100956.36
2018-08-21T05:50:45.796Z,100952.92
2018-08-21T05:51:51.779Z,100956.30
2018-08-21T05:52:58.220Z,100959.16
2018-08-21T05:54:04.239Z,100958.68
2018-08-21T05:55:10.043Z,100956.08
2018-08-21T05:56:16.875Z,100965.73
2018-08-21T05:57:22.924Z,100956.16
2018-08-21T05:58:32.963Z,100958.20
2018-08-21T05:59:38.342Z,100960.67
2018-08-21T06:00:44.542Z,100960.08
2018-08-21T06:01:49.911Z,100959.90
2018-08-21T06:03:09.024Z,100960.44
2018-08-21T06:04:15.154Z,100962.55
2018-08-21T06:05:21.102Z,100960.87
2018-08-21T06:06:26.759Z,100965.22
2018-08-21T06:07:32.785Z,100961.61
2018-08-21T06:08:38.866Z,100965.88
2018-08-21T06:09:45.143Z,100961.89
2018-08-21T06:10:50.759Z,100964.89
2018-08-21T06:11:56.844Z,100967.52
2018-08-21T06:13:02.140Z,100967.34
2018-08-21T06:14:08.327Z,100964.86
2018-08-21T06:15:14.732Z,100967.27
2018-08-21T06:16:20.784Z,100967.27
2018-08-21T06:17:26.509Z,100970.01
2018-08-21T06:18:32.551Z,100977.61
2018-08-21T06:19:38.585Z,100977.05
2018-08-21T06:20:45.106Z,100973.09
2018-08-21T06:21:51.215Z,100980.78
2018-08-21T06:22:57.186Z,100978.27
2018-08-21T06:24:03.305Z,100978.91
2018-08-21T06:25:09.712Z,100977.14
2018-08-21T06:26:15.839Z,100983.34
2018-08-21T06:27:21.955Z,100986.47
2018-08-21T06:28:27.814Z,100979.45
2018-08-21T06:29:33.863Z,100980.67
2018-08-21T06:30:39.949Z,100981.55
2018-08-21T06:31:45.946Z,100981.42
2018-08-21T06:32:51.600Z,100982.27
2018-08-21T06:33:57.644Z,100978.90
2018-08-21T06:35:03.435Z,100979.03
2018-08-21T06:36:08.793Z,100976.62
2018-08-21T06:37:14.950Z,100984.59
2018-08-21T06:38:21.300Z,100977.66
2018-08-21T06:39:27.492Z,100981.81
2018-08-21T06:40:32.808Z,100984.10
2018-08-21T06:41:38.159Z,100984.61
2018-08-21T06:42:44.248Z,100981.20
2018-08-21T06:43:49.695Z,100987.48
2018-08-21T06:44:55.783Z,100992.06
2018-08-21T06:46:01.060Z,100992.42
2018-08-21T06:47:12.167Z,100994.70
2018-08-21T06:48:18.273Z,100993.34
2018-08-21T06:49:24.260Z,101001.31
2018-08-21T06:50:30.408Z,101001.78
2018-08-21T06:51:36.047Z,101005.17
2018-08-21T06:52:41.840Z,101003.09
2018-08-21T06:53:46.824Z,101003.30
2018-08-21T06:54:52.889Z,101005.84
2018-08-21T06:55:59.123Z,101006.95
2018-08-21T06:57:05.085Z,101009.06
2018-08-21T06:58:11.401Z,101009.34
2018-08-21T06:59:17.397Z,101014.14
2018-08-21T07:00:22.841Z,101012.08
2018-08-21T07:01:28.894Z,101010.23
2018-08-21T07:02:34.964Z,101003.44
2018-08-21T07:03:41.013Z,101010.66
2018-08-21T07:04:46.793Z,101011.56
2018-08-21T07:05:52.815Z,101014.74
2018-08-21T07:06:58.840Z,101013.23
2018-08-21T07:08:05.177Z,101012.86
2018-08-21T07:09:11.648Z,101008.78
2018-08-21T07:10:17.725Z,101015.90
2018-08-21T07:11:23.530Z,101016.78
2018-08-21T07:12:29.556Z,101018.02
2018-08-21T07:13:35.660Z,101022.98
2018-08-21T07:14:41.672Z,101021.03
2018-08-21T07:15:47.685Z,101025.91
2018-08-21T07:16:55.525Z,101020.03
2018-08-21T07:18:01.643Z,101020.53
2018-08-21T07:19:07.742Z,101021.53
2018-08-21T07:20:12.964Z,101026.01
2018-08-21T07:21:18.237Z,101024.45
2018-08-21T07:22:27.072Z,101020.88
2018-08-21T07:23:33.065Z,101019.50
2018-08-21T07:24:38.900Z,101022.87
2018-08-21T07:25:44.802Z,101024.02
2018-08-21T07:26:50.899Z,101023.97
2018-08-21T07:27:56.904Z,101020.35
2018-08-21T07:29:02.910Z,101022.27
2018-08-21T07:30:09.047Z,101027.22
2018-08-21T07:31:16.069Z,101025.55
2018-08-21T07:32:21.960Z,101030.88
2018-08-21T07:33:28.298Z,101023.50
2018-08-21T07:34:34.250Z,101027.66
2018-08-21T07:35:39.841Z,101031.29
2018-08-21T07:36:45.935Z,101024.50
2018-08-21T07:37:51.861Z,101022.72
2018-08-21T07:38:57.285Z,101026.69
2018-08-21T07:40:04.039Z,101021.99
2018-08-21T07:41:10.039Z,101026.63
2018-08-21T07:42:16.159Z,101027.48
2018-08-21T07:43:21.911Z,101028.58
2018-08-21T07:44:27.792Z,101033.81
2018-08-21T07:45:33.828Z,101032.08
2018-08-21T07:46:40.865Z,101037.23
2018-08-21T07:47:47.434Z,101033.52
2018-08-21T07:48:52.839Z,101030.34
2018-08-21T07:49:58.264Z,101035.44
2018-08-21T07:51:03.925Z,101039.44
2018-08-21T07:52:10.177Z,101035.88
2018-08-21T07:53:16.277Z,101034.35
2018-08-21T07:54:22.287Z,101035.55
2018-08-21T07:55:28.414Z,101041.16
2018-08-21T07:56:34.483Z,101038.38
2018-08-21T07:57:39.761Z,101042.02
2018-08-21T07:58:45.171Z,101035.48
2018-08-21T07:59:51.275Z,101042.69
2018-08-21T08:01:04.487Z,101041.35
2018-08-21T08:02:10.450Z,101042.41
2018-08-21T08:03:16.553Z,101042.45
2018-08-21T08:04:28.486Z,101042.92
2018-08-21T08:05:34.479Z,101047.25
2018-08-21T08:06:40.481Z,101040.77
2018-08-21T08:07:46.480Z,101044.78
2018-08-21T08:08:55.641Z,101043.14
2018-08-21T08:10:00.979Z,101046.44
2018-08-21T08:11:11.151Z,101042.73
2018-08-21T08:12:17.297Z,101042.81
2018-08-21T08:13:27.018Z,101044.13
2018-08-21T08:14:33.124Z,101037.42
2018-08-21T08:15:39.232Z,101044.14
2018-08-21T08:16:45.215Z,101043.48
2018-08-21T08:17:50.990Z,101042.92
2018-08-21T08:18:57.861Z,101042.55
2018-08-21T08:20:03.104Z,101044.69
2018-08-21T08:21:13.965Z,101044.97
2018-08-21T08:22:19.810Z,101050.11
2018-08-21T08:23:25.955Z,101045.78
2018-08-21T08:24:32.224Z,101043.77
2018-08-21T08:25:39.085Z,101044.72
2018-08-21T08:26:45.091Z,101047.10
2018-08-21T08:27:51.173Z,101051.20
2018-08-21T08:28:57.867Z,101048.86
2018-08-21T08:30:03.721Z,101049.86
2018-08-21T08:31:09.712Z,101050.21
2018-08-21T08:32:20.919Z,101048.84
2018-08-21T08:33:27.672Z,101051.45
2018-08-21T08:34:33.752Z,101052.38
2018-08-21T08:35:39.787Z,101049.55
2018-08-21T08:36:47.823Z,101050.21
2018-08-21T08:37:53.674Z,101048.25
2018-08-21T08:38:59.605Z,101041.34
2018-08-21T08:40:05.677Z,101040.77
2018-08-21T08:41:11.552Z,101044.68
2018-08-21T08:42:17.620Z,101042.41
2018-08-21T08:43:23.621Z,101044.36
2018-08-21T08:44:29.381Z,101043.59
2018-08-21T08:45:35.202Z,101052.45
2018-08-21T08:46:41.372Z,101046.45
2018-08-21T08:47:47.456Z,101046.27
2018-08-21T08:49:12.202Z,101046.51
2018-08-21T08:50:18.293Z,101049.31
2018-08-21T08:51:24.333Z,101047.79
2018-08-21T08:52:30.315Z,101051.33
2018-08-21T08:53:36.357Z,101052.30
2018-08-21T08:54:42.313Z,101050.52
2018-08-21T08:55:53.662Z,101048.94
2018-08-21T08:57:04.527Z,101054.24
2018-08-21T08:58:10.544Z,101055.33
2018-08-21T08:59:16.834Z,101055.50
2018-08-21T09:00:28.792Z,101056.53
2018-08-21T09:01:35.907Z,101049.78
2018-08-21T09:02:46.955Z,101046.18
2018-08-21T09:03:55.443Z,101048.88
2018-08-21T09:05:01.447Z,101057.61
2018-08-21T09:06:06.948Z,101060.84
2018-08-21T09:07:12.959Z,101058.30
2018-08-21T09:08:18.940Z,101059.33
2018-08-21T09:09:25.489Z,101057.92
2018-08-21T09:10:31.587Z,101063.54
2018-08-21T09:11:37.568Z,101061.31
2018-08-21T09:12:43.543Z,101059.94
2018-08-21T09:13:49.630Z,101062.33
2018-08-21T09:14:55.590Z,101055.80
2018-08-21T09:16:01.685Z,101053.32
2018-08-21T09:17:06.896Z,101054.97
2018-08-21T09:18:12.863Z,101049.42
2018-08-21T09:19:18.639Z,101051.69
2018-08-21T09:20:24.712Z,101052.40
2018-08-21T09:21:30.824Z,101047.28
2018-08-21T09:22:36.807Z,101058.25
2018-08-21T09:23:42.794Z,101056.77
2018-08-21T09:24:48.850Z,101051.25
2018-08-21T09:25:54.959Z,101050.09
2018-08-21T09:27:00.967Z,101052.03
2018-08-21T09:28:07.704Z,101045.63
2018-08-21T09:29:12.817Z,101050.23
2018-08-21T09:30:18.594Z,101051.56
2018-08-21T09:31:24.719Z,101043.80
2018-08-21T09:32:30.756Z,101044.67
2018-08-21T09:33:47.797Z,101053.14
2018-08-21T09:34:53.101Z,101048.17
2018-08-21T09:35:59.477Z,101048.47
2018-08-21T09:37:05.584Z,101045.31
2018-08-21T09:38:11.525Z,101045.20
2018-08-21T09:39:17.153Z,101049.56
2018-08-21T09:40:23.109Z,101042.15
2018-08-21T09:41:29.243Z,101043.41
2018-08-21T09:42:35.363Z,101045.55
2018-08-21T09:43:41.480Z,101048.15
2018-08-21T09:44:47.532Z,101053.58
2018-08-21T09:45:55.556Z,101056.54
2018-08-21T09:47:06.027Z,101047.73
2018-08-21T09:48:12.004Z,101055.33
2018-08-21T09:49:18.117Z,101050.96
2018-08-21T09:50:27.144Z,101047.45
2018-08-21T09:51:33.907Z,101051.27
2018-08-21T09:52:44.458Z,101048.40
2018-08-21T09:53:52.645Z,101049.73
2018-08-21T09:54:58.032Z,101045.44
2018-08-21T09:56:03.736Z,101046.45
2018-08-21T09:57:09.767Z,101045.24
2018-08-21T09:58:15.890Z,101044.48
2018-08-21T09:59:21.860Z,101046.13
2018-08-21T10:00:27.764Z,101045.44
2018-08-21T10:01:33.648Z,101040.52
2018-08-21T10:02:39.636Z,101043.73
2018-08-21T10:03:45.369Z,101045.64
2018-08-21T10:04:51.249Z,101044.50
2018-08-21T10:05:57.161Z,101039.62
2018-08-21T10:07:08.158Z,101045.58
2018-08-21T10:08:14.139Z,101041.41
2018-08-21T10:09:20.110Z,101039.95
2018-08-21T10:10:26.185Z,101035.75
2018-08-21T10:11:31.921Z,101037.17
2018-08-21T10:12:37.948Z,101030.23
2018-08-21T10:13:44.427Z,101033.34
2018-08-21T10:14:50.475Z,101031.93
2018-08-21T10:15:57.159Z,101035.33
2018-08-21T10:17:03.179Z,101032.50
2018-08-21T10:18:09.412Z,101028.88
2018-08-21T10:19:15.556Z,101032.53
2018-08-21T10:20:21.566Z,101031.95
2018-08-21T10:21:27.624Z,101034.23
2018-08-21T10:22:32.824Z,101024.69
2018-08-21T10:23:38.672Z,101031.71
2018-08-21T10:24:45.296Z,101031.82
2018-08-21T10:25:51.047Z,101038.41
2018-08-21T10:26:57.027Z,101024.92
2018-08-21T10:28:03.048Z,101030.40
2018-08-21T10:29:14.108Z,101027.34
2018-08-21T10:30:20.658Z,101028.88
2018-08-21T10:31:26.664Z,101030.61
2018-08-21T10:32:32.976Z,101028.43
2018-08-21T10:33:39.112Z,101030.38
2018-08-21T10:34:44.262Z,101033.55
2018-08-21T10:35:54.996Z,101026.94
2018-08-21T10:37:06.125Z,101031.30
2018-08-21T10:38:12.243Z,101031.34
2018-08-21T10:39:18.328Z,101034.13
2018-08-21T10:40:28.333Z,101032.05
2018-08-21T10:41:34.344Z,101027.64
2018-08-21T10:42:40.073Z,101026.42
2018-08-21T10:43:46.969Z,101026.67
2018-08-21T10:44:53.043Z,101025.50
2018-08-21T10:45:58.827Z,101021.64
2018-08-21T10:47:04.904Z,101026.20
2018-08-21T10:48:10.995Z,101020.89
2018-08-21T10:49:17.080Z,101016.82
2018-08-21T10:50:23.061Z,101017.98
2018-08-21T10:51:29.082Z,101021.00
2018-08-21T10:52:35.186Z,101013.63
2018-08-21T10:53:41.216Z,101019.61
2018-08-21T10:54:47.191Z,101021.91
2018-08-21T10:55:53.336Z,101022.78
2018-08-21T10:56:59.671Z,101019.09
2018-08-21T10:58:05.685Z,101018.27
2018-08-21T10:59:11.740Z,101019.09
2018-08-21T11:00:17.847Z,101011.51
2018-08-21T11:01:23.947Z,101010.69
2018-08-21T11:02:32.127Z,101014.73
2018-08-21T11:03:37.448Z,101011.20
2018-08-21T11:04:43.508Z,101013.66
2018-08-21T11:05:49.265Z,101012.63
2018-08-21T11:06:55.208Z,101008.08
2018-08-21T11:08:01.196Z,101009.58
2018-08-21T11:09:06.579Z,101005.64
2018-08-21T11:10:12.603Z,101008.83
2018-08-21T11:11:18.848Z,101003.98
2018-08-21T11:12:25.003Z,101003.31
2018-08-21T11:13:31.188Z,101010.84
2018-08-21T11:14:36.558Z,101003.81
2018-08-21T11:15:42.581Z,101011.69
2018-08-21T11:16:49.687Z,101004.61
2018-08-21T11:17:55.758Z,101007.13
2018-08-21T11:19:01.785Z,101007.98
2018-08-21T11:20:07.871Z,101006.66
2018-08-21T11:21:18.831Z,101010.10
2018-08-21T11:22:25.108Z,101002.86
2018-08-21T11:23:31.135Z,101003.13
2018-08-21T11:24:38.380Z,101002.36
2018-08-21T11:25:44.517Z,101003.10
2018-08-21T11:26:51.240Z,101001.07
2018-08-21T11:27:57.181Z,100999.06
2018-08-21T11:29:03.799Z,100993.42
2018-08-21T11:30:09.917Z,100997.34
2018-08-21T11:31:16.051Z,100998.56
2018-08-21T11:32:26.909Z,100996.48
2018-08-21T11:33:33.087Z,101000.38
2018-08-21T11:34:39.231Z,100997.49
2018-08-21T11:35:45.325Z,100993.64
2018-08-21T11:36:51.451Z,100999.53
2018-08-21T11:37:57.735Z,100998.90
2018-08-21T11:39:04.043Z,100998.52
2018-08-21T11:40:10.755Z,101003.08
2018-08-21T11:41:18.330Z,101001.78
2018-08-21T11:42:24.480Z,101000.70
2018-08-21T11:43:30.409Z,101000.75
2018-08-21T11:44:36.393Z,101000.05
2018-08-21T11:45:42.384Z,100993.42
2018-08-21T11:46:48.372Z,100992.14
2018-08-21T11:47:54.451Z,100995.84
2018-08-21T11:49:00.645Z,100991.77
2018-08-21T11:50:06.793Z,100988.56
2018-08-21T11:51:12.470Z,100988.88
2018-08-21T11:52:18.527Z,100986.37
2018-08-21T11:53:24.497Z,100979.17
2018-08-21T11:54:30.540Z,100977.10
2018-08-21T11:55:36.543Z,100981.81
2018-08-21T11:56:42.648Z,100975.16
2018-08-21T11:57:48.643Z,100978.87
2018-08-21T11:58:54.639Z,100976.91
2018-08-21T12:00:00.690Z,100983.60
2018-08-21T12:01:07.413Z,100975.28
2018-08-21T12:02:13.492Z,100972.86
2018-08-21T12:03:19.560Z,100977.66
2018-08-21T12:04:25.717Z,100978.32
2018-08-21T12:05:31.680Z,100979.83
2018-08-21T12:06:37.790Z,100972.72
2018-08-21T12:07:43.921Z,100967.58
2018-08-21T12:08:55.025Z,100966.78
2018-08-21T12:10:01.496Z,100966.33
2018-08-21T12:11:07.647Z,100966.08
2018-08-21T12:12:13.680Z,100966.45
2018-08-21T12:13:19.817Z,100959.73
2018-08-21T12:14:27.872Z,100962.41
2018-08-21T12:15:33.828Z,100962.75
2018-08-21T12:16:39.930Z,100964.46
2018-08-21T12:17:46.036Z,100961.50
2018-08-21T12:18:53.064Z,100955.63
2018-08-21T12:19:59.229Z,100958.20
2018-08-21T12:21:04.682Z,100956.55
2018-08-21T12:22:14.047Z,100954.23
2018-08-21T12:23:20.990Z,100958.30
2018-08-21T12:24:27.789Z,100952.36
2018-08-21T12:25:33.931Z,100954.66
2018-08-21T12:26:39.743Z,100954.44
2018-08-21T12:27:45.723Z,100946.28
2018-08-21T12:28:51.766Z,100948.66
2018-08-21T12:29:57.990Z,100955.51
2018-08-21T12:31:04.196Z,100950.34
2018-08-21T12:32:10.233Z,100951.98
2018-08-21T12:33:16.392Z,100949.95
2018-08-21T12:34:22.585Z,100951.75
2018-08-21T12:35:28.696Z,100951.06
2018-08-21T12:36:34.771Z,100945.37
2018-08-21T12:37:40.767Z,100947.20
2018-08-21T12:38:46.821Z,100948.77